< < Back
Terminal Aerodrome Forecast


Current Version              Previous Versions:   1  2  3  4  5  6  7  8  9  

Terminal Aerodrome Forecast

018
FTUS42 KTAE 281100
TAFVLD
TAF
KVLD 281126Z 2812/2912 00000KT 1/4SM FG OVC002
     FM281400 19004KT P6SM SCT004 BKN015 BKN250
     FM281900 20007KT P6SM BKN025
     FM290600 00000KT 1SM BR OVC005=

Latest METAR

057
SAUS70 KWBC 281200 RRI
MTRVLD
METAR KVLD 281153Z 19004KT 1/4SM FG VV002 14/14 A3014 RMK AO2 SLP213
T01440144 10144 20122 53002


USA.gov is the U.S. government's official web portal to all federal, state and local government web resources and services.